Time;durP1;ratioP1;P1;durP2;ratioP2;P2;SDS_P1;SDS_P2;PMS_P1;PMS_P2;Temp;Humidity;BMP_temperature;BMP_pressure;BME280_temperature;BME280_humidity;BME280_pressure;Samples;Min_cycle;Max_cycle;Signal;HPM_P1;HPM_P2
2023/01/06 00:00:27;;;;;;;21.90;6.63;;;;;;;10.59;71.76;100034.00;5056314;28;20048;-65
2023/01/06 00:02:53;;;;;;;10.85;5.65;;;;;;;10.63;71.65;100043.28;5055412;28;20036;-64
2023/01/06 00:05:19;;;;;;;9.40;6.15;;;;;;;10.67;71.86;100049.94;5056979;28;20318;-66
2023/01/06 00:07:44;;;;;;;10.88;5.50;;;;;;;10.70;71.54;100055.75;5056083;28;20048;-64
2023/01/06 00:10:10;;;;;;;13.45;6.63;;;;;;;10.70;72.00;100066.34;5056894;28;20029;-65
2023/01/06 00:12:36;;;;;;;11.05;6.75;;;;;;;10.69;71.61;100062.06;5057034;28;20041;-63
2023/01/06 00:15:02;;;;;;;11.48;6.40;;;;;;;10.71;72.65;100072.50;5056859;28;20039;-64
2023/01/06 00:17:27;;;;;;;10.73;5.93;;;;;;;10.71;72.05;100075.13;5056256;28;20044;-65
2023/01/06 00:19:54;;;;;;;8.60;6.00;;;;;;;10.76;71.57;100086.09;5056288;28;20045;-65
2023/01/06 00:22:19;;;;;;;9.98;6.43;;;;;;;10.76;71.37;100080.81;5056822;28;20037;-65
2023/01/06 00:24:45;;;;;;;9.98;6.35;;;;;;;10.77;71.47;100079.81;5055189;28;20244;-64
2023/01/06 00:27:10;;;;;;;9.52;5.63;;;;;;;10.81;70.24;100076.69;5058086;28;20517;-65
2023/01/06 00:29:35;;;;;;;13.68;7.03;;;;;;;10.84;69.81;100078.22;5055350;28;20326;-64
2023/01/06 00:32:01;;;;;;;9.57;5.72;;;;;;;10.89;69.35;100075.91;5056087;28;20044;-64
2023/01/06 00:34:28;;;;;;;9.80;5.60;;;;;;;10.96;69.15;100076.13;5056448;28;20267;-65
2023/01/06 00:36:54;;;;;;;9.07;5.88;;;;;;;11.00;68.31;100082.78;5051096;28;20028;-66
2023/01/06 00:39:19;;;;;;;11.02;5.80;;;;;;;11.05;68.60;100091.91;5055895;28;20047;-65
2023/01/06 00:42:03;;;;;;;11.15;6.15;;;;;;;11.08;68.32;100088.97;5055928;28;20036;-65
2023/01/06 00:44:38;;;;;;;8.27;5.45;;;;;;;11.13;68.54;100096.44;5056507;28;20052;-64
2023/01/06 00:47:09;;;;;;;8.30;5.57;;;;;;;11.14;68.45;100100.75;5055227;28;20040;-65
2023/01/06 00:49:35;;;;;;;13.05;6.03;;;;;;;11.12;68.48;100097.41;5052791;28;20045;-64
2023/01/06 00:52:00;;;;;;;11.38;6.32;;;;;;;11.08;69.32;100088.13;5055992;28;20361;-64
2023/01/06 00:54:26;;;;;;;10.20;6.05;;;;;;;11.05;68.43;100091.91;5055878;28;20037;-64
2023/01/06 00:56:53;;;;;;;11.07;6.40;;;;;;;11.05;68.91;100091.09;5055240;28;20029;-65
2023/01/06 00:59:21;;;;;;;11.48;6.82;;;;;;;10.93;69.02;100097.63;5056770;28;20029;-66
2023/01/06 01:01:49;;;;;;;12.07;6.38;;;;;;;10.94;69.04;100099.28;5054496;28;20024;-65
2023/01/06 01:04:15;;;;;;;9.77;5.53;;;;;;;10.91;68.81;100103.09;5057233;28;20346;-66
2023/01/06 01:06:46;;;;;;;9.57;6.32;;;;;;;10.86;68.56;100106.19;5053982;28;20064;-65
2023/01/06 01:09:14;;;;;;;10.70;6.00;;;;;;;10.87;68.45;100107.03;5054686;28;20048;-65
2023/01/06 01:14:24;;;;;;;10.55;6.72;;;;;;;10.80;68.48;100108.63;5054936;28;20039;-66
2023/01/06 01:16:49;;;;;;;11.65;6.45;;;;;;;10.80;68.86;100106.00;5056261;28;20037;-65
2023/01/06 01:19:16;;;;;;;11.18;7.00;;;;;;;10.79;68.23;100102.50;5059782;28;20479;-64
2023/01/06 01:21:41;;;;;;;12.02;6.35;;;;;;;10.80;68.83;100103.34;5062462;28;20036;-64
2023/01/06 01:24:07;;;;;;;13.90;6.43;;;;;;;10.72;69.08;100103.28;5062446;28;20033;-64
2023/01/06 01:26:33;;;;;;;11.57;6.93;;;;;;;10.66;70.29;100111.84;5063515;28;20031;-64
2023/01/06 01:28:59;;;;;;;11.70;6.65;;;;;;;10.70;69.88;100113.19;5063563;28;20029;-65
2023/01/06 01:31:25;;;;;;;9.02;6.18;;;;;;;10.72;69.53;100112.06;5064204;28;20045;-65
2023/01/06 01:33:50;;;;;;;9.82;6.75;;;;;;;10.70;68.92;100114.03;5062502;28;20033;-64
2023/01/06 01:36:17;;;;;;;10.45;6.82;;;;;;;10.71;69.34;100126.28;5060094;28;20059;-65
2023/01/06 01:38:43;;;;;;;12.68;6.32;;;;;;;10.68;69.48;100123.13;5044121;28;20230;-66
2023/01/06 01:41:13;;;;;;;10.43;6.00;;;;;;;10.64;69.30;100117.28;5062780;28;20040;-65
2023/01/06 01:43:50;;;;;;;10.13;6.40;;;;;;;10.63;69.26;100114.78;5061223;28;20029;-65
2023/01/06 01:46:25;;;;;;;9.38;6.22;;;;;;;10.59;69.67;100108.16;5061222;28;20048;-63
2023/01/06 01:48:53;;;;;;;9.45;6.18;;;;;;;10.57;69.90;100104.81;5062785;28;20052;-65
2023/01/06 01:51:23;;;;;;;10.88;5.78;;;;;;;10.62;69.82;100089.31;5061665;28;20153;-65
2023/01/06 01:53:53;;;;;;;8.07;6.88;;;;;;;10.66;69.56;100095.94;5063670;28;20036;-65
2023/01/06 01:56:25;;;;;;;10.50;5.68;;;;;;;10.68;70.27;100088.69;5061271;28;20064;-64
2023/01/06 01:58:54;;;;;;;8.88;5.88;;;;;;;10.60;70.88;100088.63;5062244;28;20055;-65
2023/01/06 02:01:19;;;;;;;9.07;5.90;;;;;;;10.58;71.63;100093.25;5054818;28;20040;-64
2023/01/06 02:03:45;;;;;;;8.25;5.75;;;;;;;10.57;71.54;100094.22;5061977;28;20033;-65
2023/01/06 02:06:19;;;;;;;9.60;5.68;;;;;;;10.60;71.76;100089.47;5064661;28;20275;-65
2023/01/06 02:09:00;;;;;;;10.05;6.10;;;;;;;10.65;72.19;100081.88;5060979;28;20041;-64
2023/01/06 02:11:29;;;;;;;9.73;5.80;;;;;;;10.69;71.80;100075.28;5061725;28;20060;-65
2023/01/06 02:14:05;;;;;;;10.85;5.82;;;;;;;10.74;71.69;100082.78;5060933;28;20056;-66
2023/01/06 02:16:59;;;;;;;9.65;5.78;;;;;;;10.74;72.24;100074.81;5063302;28;20033;-66
2023/01/06 02:19:52;;;;;;;10.88;6.43;;;;;;;10.73;72.68;100081.94;5061552;28;20040;-66
2023/01/06 02:22:42;;;;;;;11.77;5.95;;;;;;;10.80;73.07;100074.19;5061170;28;20037;-64
2023/01/06 02:25:45;;;;;;;10.35;5.90;;;;;;;10.85;73.19;100062.16;5059769;28;20263;-65
2023/01/06 02:28:55;;;;;;;9.32;6.55;;;;;;;10.92;73.49;100070.31;5060384;28;20045;-64
2023/01/06 02:31:41;;;;;;;9.98;5.78;;;;;;;10.96;73.09;100044.34;5057139;28;20401;-65
2023/01/06 02:34:28;;;;;;;8.18;5.03;;;;;;;10.96;73.91;100042.50;5054474;28;20234;-65
2023/01/06 02:37:03;;;;;;;10.27;5.82;;;;;;;11.01;74.38;100028.78;5054321;28;20039;-65
2023/01/06 02:39:44;;;;;;;11.05;6.05;;;;;;;10.95;74.70;100032.91;5057371;28;20055;-65
2023/01/06 02:42:46;;;;;;;10.38;5.22;;;;;;;10.98;74.83;100042.34;5056986;28;20040;-65
2023/01/06 02:45:22;;;;;;;9.52;5.82;;;;;;;11.01;74.99;100044.69;5056326;28;20359;-65
2023/01/06 02:47:56;;;;;;;9.13;5.35;;;;;;;10.98;74.05;100037.06;5054221;28;20064;-64
2023/01/06 02:50:43;;;;;;;13.73;5.43;;;;;;;10.92;74.25;100027.91;5055261;28;20083;-64
2023/01/06 02:53:17;;;;;;;9.88;5.47;;;;;;;10.88;73.78;100019.47;5055593;28;20450;-64
2023/01/06 02:55:48;;;;;;;8.52;5.10;;;;;;;10.87;73.34;100028.38;5058528;28;20075;-65
2023/01/06 02:58:30;;;;;;;8.90;5.15;;;;;;;10.86;73.26;100012.66;5053257;28;20041;-64
2023/01/06 03:01:13;;;;;;;6.90;4.35;;;;;;;10.92;72.46;100006.72;5056844;28;20040;-64
2023/01/06 03:03:43;;;;;;;8.88;4.95;;;;;;;10.95;72.01;100002.94;5055126;28;20075;-65
2023/01/06 03:06:14;;;;;;;9.05;4.70;;;;;;;10.97;72.38;99985.88;5058518;28;20036;-65
2023/01/06 03:08:42;;;;;;;8.60;4.75;;;;;;;11.00;71.60;99984.72;5058095;28;20310;-65
2023/01/06 03:11:07;;;;;;;7.60;4.28;;;;;;;11.02;71.45;99996.84;5056731;28;20049;-65
2023/01/06 03:13:53;;;;;;;7.75;4.68;;;;;;;11.03;72.12;100017.03;5058135;28;20066;-65
2023/01/06 03:16:19;;;;;;;9.02;4.88;;;;;;;11.01;71.64;100032.28;5056893;28;20052;-66
2023/01/06 03:18:48;;;;;;;6.75;4.32;;;;;;;10.92;72.32;100035.88;5057513;28;20040;-66
2023/01/06 03:21:18;;;;;;;6.88;4.22;;;;;;;10.97;72.29;100041.53;5057269;28;20418;-64
2023/01/06 03:23:45;;;;;;;7.43;4.25;;;;;;;11.00;72.21;100025.31;5058888;28;20041;-65
2023/01/06 03:26:10;;;;;;;8.63;4.30;;;;;;;10.93;72.91;100011.03;5057943;28;20051;-65
2023/01/06 03:28:36;;;;;;;9.20;4.30;;;;;;;10.95;72.75;100008.22;5057064;28;20033;-64
2023/01/06 03:31:30;;;;;;;8.50;4.68;;;;;;;10.92;72.42;100019.97;5058748;28;20541;-65
2023/01/06 03:34:06;;;;;;;9.10;3.60;;;;;;;10.83;72.94;100026.22;5057327;28;20049;-64
2023/01/06 03:36:43;;;;;;;7.35;4.20;;;;;;;10.93;72.87;100031.41;5057323;28;20044;-65
2023/01/06 03:39:35;;;;;;;6.70;3.97;;;;;;;10.86;73.25;100033.84;5057510;28;20104;-64
2023/01/06 03:45:24;;;;;;;7.65;4.13;;;;;;;10.93;72.92;100029.56;5055104;28;20330;-65
2023/01/06 03:47:57;;;;;;;7.22;4.63;;;;;;;10.92;73.10;100027.09;5057916;28;20327;-64
2023/01/06 03:50:30;;;;;;;6.95;4.30;;;;;;;10.90;72.86;100027.25;5057848;28;20415;-65
2023/01/06 03:53:08;;;;;;;6.07;4.33;;;;;;;10.88;73.31;100035.34;5057659;28;20350;-65
2023/01/06 03:55:37;;;;;;;6.78;4.53;;;;;;;10.94;73.16;100041.00;5057375;28;20143;-64
2023/01/06 03:58:07;;;;;;;7.55;4.85;;;;;;;10.94;72.58;100056.91;5057498;28;20355;-65
2023/01/06 04:00:36;;;;;;;6.78;4.03;;;;;;;10.96;72.82;100070.81;5055716;28;20045;-65
2023/01/06 04:03:07;;;;;;;5.95;4.43;;;;;;;10.94;72.42;100060.38;5056519;28;20282;-65
2023/01/06 04:05:32;;;;;;;6.97;4.75;;;;;;;10.93;72.93;100073.78;5057357;28;20106;-65
2023/01/06 04:07:58;;;;;;;7.95;4.65;;;;;;;10.91;73.80;100091.66;5055891;28;20033;-65
2023/01/06 04:10:23;;;;;;;5.68;4.20;;;;;;;10.92;74.31;100091.50;5057230;28;20045;-65
2023/01/06 04:12:49;;;;;;;8.40;4.60;;;;;;;10.94;75.00;100089.53;5057396;28;20040;-64
2023/01/06 04:15:20;;;;;;;6.75;4.13;;;;;;;10.85;75.62;100088.66;5056980;28;20358;-64
2023/01/06 04:17:46;;;;;;;4.65;3.72;;;;;;;10.87;76.04;100085.84;5056835;28;20032;-65
2023/01/06 04:20:16;;;;;;;8.15;4.20;;;;;;;10.89;75.89;100083.88;5057056;28;20076;-65
2023/01/06 04:22:41;;;;;;;7.18;3.53;;;;;;;10.74;76.08;100075.66;5055669;28;20029;-65
2023/01/06 04:25:08;;;;;;;7.35;3.80;;;;;;;10.83;75.12;100076.53;5056777;28;20330;-64
2023/01/06 04:27:34;;;;;;;8.30;3.28;;;;;;;10.84;75.44;100081.69;5052449;28;20070;-65
2023/01/06 04:29:59;;;;;;;6.63;3.78;;;;;;;10.85;75.35;100090.47;5055849;28;20041;-65
2023/01/06 04:32:25;;;;;;;7.20;3.42;;;;;;;10.85;74.99;100095.75;5056008;28;20044;-65
2023/01/06 04:34:50;;;;;;;7.93;3.85;;;;;;;10.88;74.37;100098.09;5056667;28;20044;-65
2023/01/06 04:37:16;;;;;;;5.43;3.40;;;;;;;10.85;75.17;100093.13;5056364;28;20052;-66
2023/01/06 04:39:42;;;;;;;6.60;3.20;;;;;;;10.93;74.81;100102.94;5058111;28;20044;-65
2023/01/06 04:42:07;;;;;;;4.97;3.38;;;;;;;10.75;75.01;100105.63;5056664;28;20073;-64
2023/01/06 04:44:33;;;;;;;5.85;3.28;;;;;;;10.73;75.46;100103.13;5055959;28;20156;-65
2023/01/06 04:46:58;;;;;;;9.68;3.17;;;;;;;10.75;75.09;100101.16;5056618;28;20047;-66
2023/01/06 04:49:24;;;;;;;5.95;3.08;;;;;;;10.75;74.98;100103.81;5056037;28;20044;-66
2023/01/06 04:51:49;;;;;;;5.78;3.13;;;;;;;10.74;74.84;100122.50;5056223;28;20047;-65
2023/01/06 04:54:15;;;;;;;5.05;3.10;;;;;;;10.74;74.70;100119.84;5056796;28;20079;-66
2023/01/06 04:56:40;;;;;;;14.98;4.68;;;;;;;10.76;74.89;100124.00;5055198;28;20029;-64
2023/01/06 04:59:06;;;;;;;4.95;3.38;;;;;;;10.67;75.49;100140.00;5055053;28;20061;-65
2023/01/06 05:01:31;;;;;;;5.72;3.25;;;;;;;10.65;75.10;100126.06;5054028;28;20270;-66
2023/01/06 05:03:56;;;;;;;6.72;3.35;;;;;;;10.62;75.29;100131.69;5057405;28;20040;-65
2023/01/06 05:06:22;;;;;;;7.38;3.42;;;;;;;10.58;75.35;100147.03;5054949;28;20037;-66
2023/01/06 05:08:48;;;;;;;5.97;3.30;;;;;;;10.59;75.70;100142.56;5055634;28;20041;-65
2023/01/06 05:11:22;;;;;;;5.95;3.17;;;;;;;10.60;74.97;100157.47;5053735;28;20403;-66
2023/01/06 05:13:47;;;;;;;;;;;;;;;10.57;75.22;100161.25;5056283;28;20028;-65
2023/01/06 05:16:24;;;;;;;6.60;3.63;;;;;;;10.49;75.41;100163.84;5055185;28;19927;-65
2023/01/06 05:18:50;;;;;;;5.40;2.92;;;;;;;10.46;76.02;100170.25;5056038;28;20048;-65
2023/01/06 05:21:16;;;;;;;7.50;3.85;;;;;;;10.44;75.56;100171.41;5054706;28;20373;-65
2023/01/06 05:23:41;;;;;;;4.13;2.85;;;;;;;10.41;75.52;100169.06;5057312;28;20045;-66
2023/01/06 05:26:14;;;;;;;5.88;3.42;;;;;;;10.33;75.51;100166.28;5056546;28;20331;-65
2023/01/06 05:28:39;;;;;;;4.85;2.95;;;;;;;10.40;76.24;100177.94;5056482;28;20033;-65
2023/01/06 05:31:05;;;;;;;5.55;2.90;;;;;;;10.38;75.46;100170.16;5055609;28;20043;-66
2023/01/06 05:33:31;;;;;;;6.15;3.25;;;;;;;10.41;75.56;100169.88;5055395;28;20048;-65
2023/01/06 05:36:02;;;;;;;6.20;3.10;;;;;;;10.33;75.51;100175.06;5054737;28;20078;-65
2023/01/06 05:38:27;;;;;;;4.35;2.97;;;;;;;10.31;75.48;100174.38;5055626;28;20048;-65
2023/01/06 05:40:53;;;;;;;6.03;3.05;;;;;;;10.34;74.94;100189.13;5054999;28;20245;-66
2023/01/06 05:43:22;;;;;;;4.22;2.83;;;;;;;10.36;75.38;100185.34;5054691;28;20033;-66
2023/01/06 05:45:47;;;;;;;8.15;2.90;;;;;;;10.34;74.68;100171.44;5054864;28;20440;-65
2023/01/06 05:48:13;;;;;;;7.75;3.08;;;;;;;10.41;74.08;100177.00;5058482;28;20041;-64
2023/01/06 05:50:38;;;;;;;5.60;2.72;;;;;;;10.52;73.18;100188.19;5061330;28;20044;-66
2023/01/06 05:53:03;;;;;;;6.70;2.83;;;;;;;10.61;73.21;100209.44;5056410;28;20326;-66
2023/01/06 05:55:29;;;;;;;5.35;2.88;;;;;;;10.64;72.80;100203.84;5055172;28;20047;-65
2023/01/06 05:57:54;;;;;;;9.70;3.00;;;;;;;10.71;73.22;100218.16;5056638;28;20498;-65
2023/01/06 06:00:20;;;;;;;6.85;2.85;;;;;;;10.73;72.66;100221.47;5056785;28;20051;-65
2023/01/06 06:02:45;;;;;;;7.60;2.88;;;;;;;10.75;72.96;100206.28;5054733;28;20769;-65
2023/01/06 06:05:11;;;;;;;4.03;2.65;;;;;;;10.77;72.97;100212.25;5056723;28;20037;-65
2023/01/06 06:07:36;;;;;;;4.50;2.60;;;;;;;10.80;72.73;100223.38;5058872;28;20069;-66
2023/01/06 06:10:03;;;;;;;6.75;2.65;;;;;;;10.82;72.11;100223.22;5059545;28;20521;-65
2023/01/06 06:12:28;;;;;;;4.75;2.58;;;;;;;10.83;72.50;100238.13;5058167;28;20079;-66
2023/01/06 06:14:54;;;;;;;4.28;2.50;;;;;;;10.79;72.21;100237.59;5057950;28;20257;-66
2023/01/06 06:17:19;;;;;;;4.05;2.83;;;;;;;10.86;72.64;100248.44;5057128;28;20196;-65
2023/01/06 06:19:45;;;;;;;5.55;2.75;;;;;;;10.85;71.95;100255.53;5057812;28;20106;-65
2023/01/06 06:22:10;;;;;;;4.32;2.88;;;;;;;10.87;72.29;100256.22;5056997;28;20059;-65
2023/01/06 06:24:35;;;;;;;8.80;4.38;;;;;;;10.90;71.89;100260.38;5057271;28;20045;-66
2023/01/06 06:27:01;;;;;;;6.85;3.50;;;;;;;10.92;72.38;100265.53;5057830;28;20036;-66
2023/01/06 06:29:26;;;;;;;4.90;2.97;;;;;;;10.91;71.76;100272.66;5057252;28;20037;-65
2023/01/06 06:31:52;;;;;;;5.75;2.65;;;;;;;10.93;71.44;100268.03;5059272;28;20045;-67
2023/01/06 06:34:17;;;;;;;4.53;3.08;;;;;;;10.95;71.46;100271.38;5057918;28;20049;-66
2023/01/06 06:36:42;;;;;;;5.40;2.70;;;;;;;10.97;71.72;100271.22;5057618;28;20037;-65
2023/01/06 06:39:08;;;;;;;4.32;2.30;;;;;;;11.07;70.78;100283.41;5058547;28;20079;-65
2023/01/06 06:41:33;;;;;;;4.88;2.83;;;;;;;11.06;71.09;100279.09;5058414;28;20036;-66
2023/01/06 06:43:59;;;;;;;4.38;3.28;;;;;;;11.10;69.79;100283.09;5058095;28;20422;-65
2023/01/06 06:46:24;;;;;;;5.88;2.80;;;;;;;11.13;70.22;100288.09;5058313;28;20039;-66
2023/01/06 06:48:50;;;;;;;5.72;3.10;;;;;;;11.14;70.01;100286.28;5060273;28;20045;-65
2023/01/06 06:51:18;;;;;;;3.10;1.92;;;;;;;11.17;70.25;100289.44;5050934;28;20032;-66
2023/01/06 06:53:44;;;;;;;4.72;2.60;;;;;;;11.25;69.87;100287.84;5057574;28;20037;-65
2023/01/06 06:56:11;;;;;;;5.00;2.70;;;;;;;11.27;69.12;100293.84;5060291;28;20139;-66
2023/01/06 06:58:37;;;;;;;5.18;2.90;;;;;;;11.33;68.47;100299.34;5058211;28;20104;-66
2023/01/06 07:01:14;;;;;;;7.22;2.88;;;;;;;11.46;68.69;100296.34;5057376;28;20107;-66
2023/01/06 07:03:39;;;;;;;5.95;2.75;;;;;;;11.50;68.26;100297.69;5059521;28;20086;-65
2023/01/06 07:06:07;;;;;;;5.18;2.67;;;;;;;11.61;67.60;100286.00;5057012;28;20302;-66
2023/01/06 07:08:33;;;;;;;6.00;2.97;;;;;;;11.58;67.23;100276.53;5057634;28;20044;-66
2023/01/06 07:10:59;;;;;;;4.80;2.33;;;;;;;11.65;66.57;100264.31;5056510;28;20087;-66
2023/01/06 07:13:25;;;;;;;5.90;2.50;;;;;;;11.73;66.59;100274.16;5057452;28;20036;-65
2023/01/06 07:15:50;;;;;;;3.70;2.40;;;;;;;11.80;66.36;100277.88;5057357;28;20039;-68
2023/01/06 07:18:16;;;;;;;4.47;2.55;;;;;;;11.90;66.46;100270.63;5056539;28;20040;-68
2023/01/06 07:20:46;;;;;;;3.53;2.15;;;;;;;11.97;65.89;100274.31;5057102;28;20065;-66
2023/01/06 07:23:12;;;;;;;3.97;2.60;;;;;;;12.06;66.04;100265.41;5058109;28;20099;-68
2023/01/06 07:25:37;;;;;;;6.07;2.53;;;;;;;12.15;65.42;100275.06;5056587;28;20129;-67
2023/01/06 07:28:04;;;;;;;4.22;2.10;;;;;;;12.21;65.03;100276.25;5052946;28;20041;-67
2023/01/06 07:30:30;;;;;;;5.07;2.20;;;;;;;12.30;64.58;100298.34;5056721;28;20037;-66
2023/01/06 07:32:55;;;;;;;5.20;2.00;;;;;;;12.23;65.04;100303.47;5056293;28;20357;-67
2023/01/06 07:35:21;;;;;;;4.30;2.33;;;;;;;12.30;64.25;100304.50;5056530;28;20088;-68
2023/01/06 07:37:47;;;;;;;4.07;2.33;;;;;;;12.47;64.45;100319.50;5057902;28;20078;-68
2023/01/06 07:40:13;;;;;;;4.40;2.20;;;;;;;12.57;64.00;100313.25;5058416;28;20147;-67
2023/01/06 07:42:38;;;;;;;5.47;2.05;;;;;;;12.65;63.67;100314.13;5056198;28;20200;-67
2023/01/06 07:45:06;;;;;;;7.10;2.83;;;;;;;12.64;63.34;100317.78;5057906;28;20224;-68
2023/01/06 07:47:31;;;;;;;4.63;2.25;;;;;;;12.68;62.83;100318.28;5055974;28;20106;-67
2023/01/06 07:49:57;;;;;;;8.10;2.50;;;;;;;12.75;62.66;100322.78;5057177;28;20266;-68
2023/01/06 07:52:22;;;;;;;5.10;2.40;;;;;;;12.76;62.02;100319.13;5055756;28;20044;-65
2023/01/06 07:54:48;;;;;;;8.57;2.22;;;;;;;12.76;60.97;100324.44;5057142;28;20878;-67
2023/01/06 07:57:13;;;;;;;4.38;1.92;;;;;;;12.86;61.77;100334.09;5055702;28;20028;-66
2023/01/06 07:59:38;;;;;;;5.38;2.08;;;;;;;12.91;61.12;100343.25;5057453;28;20354;-66
2023/01/06 08:02:04;;;;;;;4.40;1.90;;;;;;;13.00;60.67;100354.75;5055967;28;20021;-66
2023/01/06 08:04:30;;;;;;;6.07;2.25;;;;;;;13.06;59.42;100344.28;5056806;28;20055;-66
2023/01/06 08:06:55;;;;;;;5.47;2.30;;;;;;;13.20;59.51;100358.81;5056111;28;20381;-65
2023/01/06 08:09:21;;;;;;;2.47;1.67;;;;;;;13.28;58.06;100355.31;5056860;28;20040;-67
2023/01/06 08:11:46;;;;;;;5.05;2.30;;;;;;;13.30;58.05;100359.47;5056748;28;20032;-65
2023/01/06 08:14:12;;;;;;;2.90;1.75;;;;;;;13.34;57.43;100354.66;5057305;28;20386;-66
2023/01/06 08:16:38;;;;;;;7.13;2.60;;;;;;;13.39;56.75;100349.69;5057161;28;20033;-66
2023/01/06 08:19:04;;;;;;;3.03;1.80;;;;;;;13.44;57.09;100358.00;5056093;28;21025;-65
2023/01/06 08:21:29;;;;;;;6.25;1.88;;;;;;;13.50;56.37;100349.34;5057390;28;20446;-65
2023/01/06 08:23:55;;;;;;;4.28;1.50;;;;;;;13.53;56.07;100349.03;5055691;28;20340;-65
2023/01/06 08:26:20;;;;;;;6.18;1.65;;;;;;;13.53;55.70;100351.72;5056392;28;20577;-66
2023/01/06 08:28:46;;;;;;;4.97;1.85;;;;;;;13.57;55.54;100369.00;5054948;28;20037;-66
2023/01/06 08:31:15;;;;;;;3.00;2.03;;;;;;;13.64;54.78;100364.69;5057064;28;20040;-67
2023/01/06 08:33:41;;;;;;;6.47;2.13;;;;;;;13.73;54.28;100363.66;5055409;28;20257;-65
2023/01/06 08:36:08;;;;;;;5.70;2.40;;;;;;;13.77;54.55;100368.66;5057288;28;20048;-67
2023/01/06 08:38:35;;;;;;;9.27;2.80;;;;;;;13.84;54.33;100367.00;5056265;28;20045;-66
2023/01/06 08:41:01;;;;;;;4.57;1.58;;;;;;;13.86;54.25;100357.84;5056723;28;20100;-66
2023/01/06 08:43:28;;;;;;;6.70;1.92;;;;;;;13.91;53.83;100363.50;5056759;28;20317;-66
2023/01/06 08:46:01;;;;;;;4.05;1.63;;;;;;;13.96;53.67;100358.50;5056634;28;20108;-66
2023/01/06 08:48:28;;;;;;;4.78;1.70;;;;;;;13.92;52.78;100348.34;5056388;28;20040;-66
2023/01/06 08:50:54;;;;;;;4.40;1.40;;;;;;;13.95;52.19;100358.66;5054796;28;20270;-66
2023/01/06 08:53:19;;;;;;;3.80;1.52;;;;;;;13.99;52.51;100344.00;5056604;28;20078;-65
2023/01/06 08:55:45;;;;;;;2.97;1.80;;;;;;;14.07;52.77;100342.16;5054667;28;20386;-66
2023/01/06 08:58:10;;;;;;;2.70;1.15;;;;;;;14.11;52.21;100326.66;5056455;28;20077;-66
2023/01/06 09:00:38;;;;;;;3.88;1.35;;;;;;;14.16;52.46;100328.81;5055892;28;20063;-66
2023/01/06 09:03:03;;;;;;;3.67;1.67;;;;;;;14.12;51.92;100325.66;5056647;28;20029;-67
2023/01/06 09:05:29;;;;;;;3.35;1.48;;;;;;;14.16;51.98;100318.16;5055057;28;20056;-66
2023/01/06 09:07:54;;;;;;;2.17;1.98;;;;;;;14.26;51.89;100329.47;5056215;28;20339;-67
2023/01/06 09:10:20;;;;;;;4.90;1.55;;;;;;;14.31;51.67;100316.44;5057168;28;20037;-66
2023/01/06 09:12:46;;;;;;;4.47;1.45;;;;;;;14.31;50.77;100317.28;5056806;28;20074;-66
2023/01/06 09:15:12;;;;;;;4.50;1.52;;;;;;;14.27;51.00;100323.97;5057709;28;20315;-67
2023/01/06 09:17:38;;;;;;;6.80;1.83;;;;;;;14.27;51.16;100321.28;5057200;28;20059;-65
2023/01/06 09:20:04;;;;;;;3.17;1.40;;;;;;;14.26;50.88;100316.13;5057423;28;20120;-66
2023/01/06 09:22:29;;;;;;;5.93;2.00;;;;;;;14.30;51.09;100334.28;5056356;28;20028;-65
2023/01/06 09:24:55;;;;;;;2.00;1.35;;;;;;;14.31;51.08;100324.44;5056631;28;20033;-66
2023/01/06 09:27:20;;;;;;;3.70;1.73;;;;;;;14.39;51.91;100327.06;5056917;28;20025;-66
2023/01/06 09:29:46;;;;;;;2.67;1.40;;;;;;;14.50;51.61;100320.56;5057038;28;20342;-66
2023/01/06 09:32:11;;;;;;;6.15;1.42;;;;;;;14.59;51.00;100317.72;5056762;28;20045;-67
2023/01/06 09:34:36;;;;;;;3.17;1.35;;;;;;;14.56;49.48;100310.06;5056166;28;20039;-66
2023/01/06 09:37:02;;;;;;;4.45;2.13;;;;;;;14.53;49.18;100313.06;5056534;28;20033;-66
2023/01/06 09:39:27;;;;;;;4.28;1.67;;;;;;;14.45;48.92;100305.09;5057690;28;20060;-67
2023/01/06 09:42:26;;;;;;;3.25;1.50;;;;;;;14.49;49.28;100310.91;5060897;28;20350;-65
2023/01/06 09:45:24;;;;;;;7.80;2.60;;;;;;;14.52;48.33;100308.72;5060634;28;20094;-66
2023/01/06 09:47:56;;;;;;;3.97;2.00;;;;;;;14.59;48.15;100307.06;5045706;28;20078;-66
2023/01/06 09:50:34;;;;;;;4.85;1.70;;;;;;;14.59;47.44;100304.41;5060930;28;20082;-66
2023/01/06 09:53:21;;;;;;;3.97;1.75;;;;;;;14.58;47.37;100305.41;5059608;28;20040;-66
2023/01/06 09:55:50;;;;;;;3.05;1.30;;;;;;;14.61;47.79;100313.06;5060390;28;20044;-66
2023/01/06 09:58:27;;;;;;;3.05;1.50;;;;;;;14.62;47.13;100313.88;5060700;28;20029;-66
2023/01/06 10:00:54;;;;;;;5.03;1.60;;;;;;;14.63;46.92;100308.38;5060047;28;20242;-66
2023/01/06 10:03:25;;;;;;;2.88;1.30;;;;;;;14.65;46.42;100303.69;5060324;28;20045;-66
2023/01/06 10:05:56;;;;;;;3.60;1.50;;;;;;;14.73;45.50;100304.66;5059791;28;20055;-65
2023/01/06 10:08:28;;;;;;;2.95;1.50;;;;;;;14.74;44.93;100295.66;5060015;28;20040;-66
2023/01/06 10:11:09;;;;;;;1.75;1.30;;;;;;;14.76;44.82;100301.66;5060298;28;20702;-66
2023/01/06 10:13:50;;;;;;;2.90;1.30;;;;;;;14.74;44.65;100301.00;5059618;28;20044;-66
2023/01/06 10:16:21;;;;;;;2.50;1.50;;;;;;;14.78;45.05;100300.47;5059537;28;20040;-65
2023/01/06 10:18:55;;;;;;;3.75;1.42;;;;;;;14.75;44.66;100300.00;5059980;28;20055;-66
2023/01/06 10:21:30;;;;;;;2.50;1.20;;;;;;;14.79;44.85;100299.47;5060514;28;20037;-66
2023/01/06 10:24:12;;;;;;;1.27;1.10;;;;;;;14.83;44.11;100286.59;5059867;28;20041;-67
2023/01/06 10:26:40;;;;;;;3.72;1.70;;;;;;;14.84;43.98;100286.44;5059645;28;20258;-67
2023/01/06 10:29:18;;;;;;;2.08;1.60;;;;;;;14.85;44.08;100287.25;5059986;28;20078;-67
2023/01/06 10:31:46;;;;;;;2.65;1.40;;;;;;;14.83;44.48;100294.59;5059401;28;20033;-65
2023/01/06 10:34:19;;;;;;;2.00;1.25;;;;;;;14.87;44.20;100285.25;5057883;28;20033;-65
2023/01/06 10:36:51;;;;;;;2.35;1.52;;;;;;;14.90;44.27;100283.06;5059068;28;20033;-66
2023/01/06 10:39:19;;;;;;;1.52;1.40;;;;;;;14.89;44.34;100289.41;5059534;28;20219;-66
2023/01/06 10:41:55;;;;;;;5.07;1.30;;;;;;;14.93;44.12;100285.38;5059353;28;20033;-66
2023/01/06 10:44:21;;;;;;;1.50;1.27;;;;;;;14.94;44.56;100279.03;5059440;28;20068;-65
2023/01/06 10:46:48;;;;;;;2.38;1.30;;;;;;;15.03;44.72;100282.47;5059785;28;20029;-67
2023/01/06 10:49:19;;;;;;;3.05;1.55;;;;;;;14.99;44.23;100263.31;5059412;28;20115;-66
2023/01/06 10:52:01;;;;;;;1.60;1.38;;;;;;;14.89;44.07;100256.56;5058692;28;20096;-66
2023/01/06 10:54:32;;;;;;;2.53;1.42;;;;;;;14.81;43.43;100243.31;5058982;28;20081;-66
2023/01/06 10:57:25;;;;;;;3.35;1.50;;;;;;;14.81;43.51;100238.78;5058826;28;20218;-66
2023/01/06 11:00:14;;;;;;;1.60;1.23;;;;;;;14.80;43.61;100246.97;5058976;28;20075;-67
2023/01/06 11:02:50;;;;;;;1.52;1.42;;;;;;;14.76;43.79;100237.66;5059585;28;20037;-66
2023/01/06 11:05:22;;;;;;;2.55;1.65;;;;;;;14.79;44.06;100231.97;5058816;28;20044;-66
2023/01/06 11:07:54;;;;;;;3.30;1.63;;;;;;;14.82;43.47;100227.13;5058685;28;20082;-67
2023/01/06 11:10:29;;;;;;;4.72;1.60;;;;;;;14.80;43.56;100220.31;5059766;28;20049;-66
2023/01/06 11:12:58;;;;;;;7.13;2.10;;;;;;;14.89;43.23;100217.41;5058410;28;20226;-66
2023/01/06 11:15:33;;;;;;;2.78;1.65;;;;;;;14.93;43.79;100218.72;5058727;28;20064;-66
2023/01/06 11:17:59;;;;;;;2.17;1.52;;;;;;;14.98;43.35;100216.34;5059137;28;20278;-67
2023/01/06 11:20:24;;;;;;;2.28;1.60;;;;;;;15.01;43.71;100209.81;5058862;28;20037;-66
2023/01/06 11:22:50;;;;;;;2.42;1.30;;;;;;;14.97;43.47;100198.69;5058784;28;20859;-65
2023/01/06 11:25:29;;;;;;;1.52;1.15;;;;;;;15.01;43.71;100207.97;5058360;28;20315;-67
2023/01/06 11:28:18;;;;;;;2.78;1.13;;;;;;;14.97;42.67;100195.19;5058806;28;20216;-66
2023/01/06 11:30:51;;;;;;;2.72;1.20;;;;;;;14.90;43.29;100202.25;5057865;28;20042;-66
2023/01/06 11:33:19;;;;;;;1.83;1.17;;;;;;;14.95;43.84;100210.53;5058677;28;20155;-67
2023/01/06 11:35:45;;;;;;;3.47;1.30;;;;;;;14.99;42.76;100203.84;5056682;28;20342;-66
2023/01/06 11:38:16;;;;;;;2.10;1.23;;;;;;;14.99;43.28;100204.66;5057324;28;20338;-66
2023/01/06 11:40:45;;;;;;;2.65;1.02;;;;;;;14.89;42.58;100204.06;5056931;28;20064;-65